Aérodrome :
LOGIN :

S'inscrire | Disclaimer

   EN    FR    IT 

 










Légende :    VFR   VFR Marginal   IFR   IFR Intensif   IFR Très Intensif
Visi : 
Plafond : 
>= 8 km
>= 3000ft
5 à 8 km
1000 à 3000 ft
1500m à 5 km
500 à 1000 ft
800 à 1500m
200 à 500 ft
< 800m
< 200 ft
Symboles :   Orages  Brouillard  Fortes neiges  Fortes précipitations  Vent > 20 kt
SIGMETs :   Divers  Orages  Givrage  Turbulence  Onde Orograph.  Cendres Volcan.







- Altitude de l'aérodrome : 423 ft
- Code IATA : PIS
- Voir les cartes d'approche


LFBI - Poitiers

DERNIER METAR :
  • 210300Z AUTO 19016KT CAVOK 16/12 Q1014 TEMPO 22015G25KT 4000 -RA BKN013

METARs EXPIRÉS :
  • 210230Z AUTO 19013KT CAVOK 16/12 Q1014 TEMPO 22015G25KT 4000 -RA BKN013
  • 210200Z AUTO 19013KT CAVOK 15/13 Q1014 TEMPO 22015G25KT
  • 210130Z AUTO 18009KT CAVOK 15/13 Q1014 TEMPO 22015G25KT
  • 210100Z AUTO 18009KT CAVOK 15/14 Q1014 TEMPO 22015G25KT
  • 210030Z AUTO 18009KT CAVOK 15/14 Q1014 TEMPO 22015G25KT
  • 210000Z AUTO 18009KT 9999 FEW046 15/13 Q1014 TEMPO 22015G25KT

TAF TAF LFBI
Valide du 21 à 00h jusqu'au 22 à 00h UTC


202300Z 2100/2124 19010KT 9999 BKN040
TEMPO 2100/2104 22015G25KT
TEMPO 2104/2109 22015G25KT 4000 -RA BKN013
BECMG 2109/2111 25012KT
TEMPO 2109/2121 25015G30KT 4000 -SHRA SCT030TCU BKN040
PROB40
TEMPO 2121/2124 4000 -SHRA SCT030TCU BKN040
Pas de NOTAMs connus pour ce terrain.



MET'MAP, la Météo Aéronautique d'un coup d'oeil ! - Copyright ORBIFLY Décembre 2007 - Disclaimer

ORBIFLY MET'MAP TEAM :

Programmation & Développement : Alexandra Zaïnal
Conception & Développement : Baudouin d'Aumeries
Co-Programmation & Développement : Marc-Olivier Méhu
Soutien technique & logistique : Manuel Goepfert

Contact : metmap@orbifly.com




SOURCES & CREDITS :

   NOAA